createdAt,value
2023-02-26T00:01:47.511Z,94680.59
2023-02-26T00:04:15.825Z,94680.06
2023-02-26T00:06:54.422Z,94675.80
2023-02-26T00:09:25.182Z,94675.54
2023-02-26T00:11:54.266Z,94673.61
2023-02-26T00:14:24.037Z,94672.36
2023-02-26T00:17:29.186Z,94670.55
2023-02-26T00:19:57.520Z,94671.34
2023-02-26T00:22:25.855Z,94665.40
2023-02-26T00:24:53.950Z,94661.79
2023-02-26T00:27:22.101Z,94658.20
2023-02-26T00:29:50.893Z,94661.38
2023-02-26T00:32:19.472Z,94661.45
2023-02-26T00:34:49.302Z,94661.05
2023-02-26T00:37:29.181Z,94660.75
2023-02-26T00:40:10.874Z,94666.36
2023-02-26T00:42:40.152Z,94673.44
2023-02-26T00:45:09.731Z,94674.36
2023-02-26T00:47:56.248Z,94679.80
2023-02-26T00:50:26.768Z,94683.71
2023-02-26T00:53:00.934Z,94685.89
2023-02-26T00:55:29.615Z,94693.19
2023-02-26T00:57:58.081Z,94694.02
2023-02-26T01:00:27.534Z,94694.17
2023-02-26T01:02:55.720Z,94696.55
2023-02-26T01:05:24.057Z,94698.16
2023-02-26T01:08:10.405Z,94699.80
2023-02-26T01:10:39.264Z,94695.98
2023-02-26T01:13:08.450Z,94691.23
2023-02-26T01:15:37.173Z,94687.22
2023-02-26T01:18:09.900Z,94682.82
2023-02-26T01:20:48.347Z,94675.52
2023-02-26T01:23:24.350Z,94673.95
2023-02-26T01:26:15.338Z,94667.54
2023-02-26T01:28:44.295Z,94661.95
2023-02-26T01:31:31.267Z,94664.08
2023-02-26T01:34:07.551Z,94659.59
2023-02-26T01:36:43.837Z,94659.41
2023-02-26T01:39:31.148Z,94664.80
2023-02-26T01:42:15.791Z,94665.18
2023-02-26T01:45:17.284Z,94664.03
2023-02-26T01:48:04.938Z,94662.42
2023-02-26T01:50:36.366Z,94657.60
2023-02-26T01:53:26.750Z,94652.46
2023-02-26T01:56:20.014Z,94646.30
2023-02-26T01:58:50.212Z,94639.38
2023-02-26T02:01:18.496Z,94636.80
2023-02-26T02:03:46.676Z,94642.75
2023-02-26T02:06:19.854Z,94648.41
2023-02-26T02:08:48.160Z,94651.27
2023-02-26T02:11:16.380Z,94654.44
2023-02-26T02:14:18.892Z,94655.35
2023-02-26T02:17:00.978Z,94659.98
2023-02-26T02:19:39.736Z,94668.34
2023-02-26T02:22:15.997Z,94674.30
2023-02-26T02:24:57.966Z,94683.73
2023-02-26T02:27:55.134Z,94683.48
2023-02-26T02:31:02.915Z,94678.29
2023-02-26T02:33:36.625Z,94678.77
2023-02-26T02:36:13.289Z,94680.14
2023-02-26T02:39:05.673Z,94684.55
2023-02-26T02:41:42.682Z,94682.00
2023-02-26T02:44:15.824Z,94687.81
2023-02-26T02:46:48.135Z,94686.58
2023-02-26T02:49:24.211Z,94686.02
2023-02-26T02:51:57.705Z,94686.75
2023-02-26T02:54:35.670Z,94688.73
2023-02-26T02:57:19.501Z,94683.20
2023-02-26T02:59:52.112Z,94676.64
2023-02-26T03:02:29.169Z,94676.63
2023-02-26T03:04:57.419Z,94677.36
2023-02-26T03:07:25.804Z,94674.62
2023-02-26T03:09:55.316Z,94664.38
2023-02-26T03:12:26.705Z,94666.39
2023-02-26T03:14:54.800Z,94664.30
2023-02-26T03:17:47.028Z,94665.66
2023-02-26T03:20:21.258Z,94668.09
2023-02-26T03:23:12.007Z,94672.35
2023-02-26T03:26:00.813Z,94684.27
2023-02-26T03:28:31.807Z,94690.09
2023-02-26T03:31:13.577Z,94685.48
2023-02-26T03:34:00.527Z,94682.98
2023-02-26T03:36:38.062Z,94685.02
2023-02-26T03:39:30.273Z,94690.52
2023-02-26T03:42:08.094Z,94687.55
2023-02-26T03:44:56.412Z,94691.98
2023-02-26T03:47:25.560Z,94695.62
2023-02-26T03:49:58.388Z,94695.34
2023-02-26T03:52:31.871Z,94694.58
2023-02-26T03:55:16.226Z,94697.01
2023-02-26T03:57:56.989Z,94695.87
2023-02-26T04:00:33.807Z,94692.39
2023-02-26T04:03:14.935Z,94696.45
2023-02-26T04:05:48.861Z,94697.80
2023-02-26T04:08:17.960Z,94699.08
2023-02-26T04:10:55.931Z,94698.95
2023-02-26T04:13:25.257Z,94702.42
2023-02-26T04:15:53.658Z,94694.84
2023-02-26T04:18:22.048Z,94689.09
2023-02-26T04:20:50.192Z,94686.40
2023-02-26T04:23:19.814Z,94686.02
2023-02-26T04:25:47.911Z,94680.65
2023-02-26T04:28:17.731Z,94680.55
2023-02-26T04:30:46.534Z,94687.80
2023-02-26T04:33:16.282Z,94687.48
2023-02-26T04:35:44.938Z,94686.08
2023-02-26T04:38:13.072Z,94685.48
2023-02-26T04:40:41.368Z,94685.27
2023-02-26T04:43:11.258Z,94685.80
2023-02-26T04:45:48.895Z,94688.20
2023-02-26T04:48:17.909Z,94681.67
2023-02-26T04:50:46.673Z,94676.42
2023-02-26T04:53:15.016Z,94677.25
2023-02-26T04:55:43.300Z,94682.02
2023-02-26T04:58:11.383Z,94690.52
2023-02-26T05:00:40.293Z,94691.08
2023-02-26T05:03:10.465Z,94692.80
2023-02-26T05:05:38.574Z,94692.56
2023-02-26T05:08:08.006Z,94691.98
2023-02-26T05:10:36.610Z,94695.61
2023-02-26T05:13:05.933Z,94703.98
2023-02-26T05:15:34.542Z,94708.38
2023-02-26T05:18:02.613Z,94707.33
2023-02-26T05:20:30.883Z,94706.83
2023-02-26T05:23:00.167Z,94712.05
2023-02-26T05:25:28.460Z,94713.54
2023-02-26T05:27:56.741Z,94718.70
2023-02-26T05:30:25.601Z,94720.26
2023-02-26T05:32:54.987Z,94712.17
2023-02-26T05:35:23.008Z,94711.50
2023-02-26T05:37:51.014Z,94712.14
2023-02-26T05:40:19.161Z,94714.45
2023-02-26T05:42:47.426Z,94720.88
2023-02-26T05:45:15.916Z,94724.68
2023-02-26T05:47:44.770Z,94718.48
2023-02-26T05:50:13.500Z,94712.58
2023-02-26T05:52:41.754Z,94718.20
2023-02-26T05:55:10.148Z,94719.42
2023-02-26T05:57:38.489Z,94720.91
2023-02-26T06:00:08.401Z,94719.17
2023-02-26T06:02:42.620Z,94721.81
2023-02-26T06:05:11.508Z,94726.55
2023-02-26T06:07:40.024Z,94724.98
2023-02-26T06:10:09.489Z,94727.05
2023-02-26T06:12:38.503Z,94732.83
2023-02-26T06:15:08.077Z,94737.65
2023-02-26T06:17:40.327Z,94734.71
2023-02-26T06:20:10.729Z,94733.73
2023-02-26T06:22:39.311Z,94732.76
2023-02-26T06:25:07.868Z,94736.55
2023-02-26T06:27:36.541Z,94740.04
2023-02-26T06:30:05.374Z,94743.80
2023-02-26T06:32:33.993Z,94741.80
2023-02-26T06:35:02.729Z,94746.31
2023-02-26T06:37:30.805Z,94749.80
2023-02-26T06:39:59.004Z,94749.05
2023-02-26T06:42:27.179Z,94749.71
2023-02-26T06:44:57.184Z,94750.76
2023-02-26T06:47:25.314Z,94749.44
2023-02-26T06:49:53.424Z,94747.17
2023-02-26T06:52:22.108Z,94749.98
2023-02-26T06:54:50.353Z,94749.67
2023-02-26T06:57:18.650Z,94746.60
2023-02-26T06:59:46.763Z,94748.50
2023-02-26T07:02:20.446Z,94753.73
2023-02-26T07:04:49.215Z,94753.39
2023-02-26T07:07:17.771Z,94758.30
2023-02-26T07:09:46.359Z,94760.33
2023-02-26T07:12:14.596Z,94762.65
2023-02-26T07:14:46.766Z,94757.41
2023-02-26T07:17:20.951Z,94758.17
2023-02-26T07:19:51.740Z,94755.33
2023-02-26T07:22:22.012Z,94758.52
2023-02-26T07:24:51.481Z,94764.44
2023-02-26T07:27:19.718Z,94767.84
2023-02-26T07:29:47.823Z,94769.88
2023-02-26T07:32:17.951Z,94774.88
2023-02-26T07:34:45.949Z,94771.09
2023-02-26T07:37:14.207Z,94771.77
2023-02-26T07:39:42.592Z,94779.25
2023-02-26T07:42:10.861Z,94788.42
2023-02-26T07:44:40.923Z,94790.10
2023-02-26T07:47:09.929Z,94789.39
2023-02-26T07:49:38.027Z,94791.51
2023-02-26T07:52:10.089Z,94791.33
2023-02-26T07:54:38.188Z,94792.58
2023-02-26T07:57:06.198Z,94791.64
2023-02-26T07:59:34.342Z,94791.04
2023-02-26T08:02:02.331Z,94791.70
2023-02-26T08:04:33.101Z,94790.91
2023-02-26T08:07:01.748Z,94793.26
2023-02-26T08:09:30.792Z,94795.06
2023-02-26T08:11:58.969Z,94796.11
2023-02-26T08:14:27.103Z,94797.88
2023-02-26T08:16:55.191Z,94798.02
2023-02-26T08:19:23.287Z,94796.79
2023-02-26T08:21:51.758Z,94798.64
2023-02-26T08:24:19.773Z,94797.74
2023-02-26T08:26:48.189Z,94796.85
2023-02-26T08:29:16.266Z,94796.66
2023-02-26T08:31:44.380Z,94803.30
2023-02-26T08:34:14.235Z,94800.77
2023-02-26T08:36:42.303Z,94805.94
2023-02-26T08:39:10.288Z,94809.59
2023-02-26T08:41:38.663Z,94811.35
2023-02-26T08:44:07.290Z,94815.20
2023-02-26T08:46:35.745Z,94812.12
2023-02-26T08:49:03.893Z,94810.95
2023-02-26T08:51:31.829Z,94816.12
2023-02-26T08:53:59.840Z,94813.96
2023-02-26T08:56:28.293Z,94816.96
2023-02-26T08:58:56.514Z,94822.50
2023-02-26T09:01:25.002Z,94831.50
2023-02-26T09:03:53.367Z,94835.74
2023-02-26T09:06:21.436Z,94838.80
2023-02-26T09:08:49.483Z,94837.28
2023-02-26T09:11:17.600Z,94838.14
2023-02-26T09:13:45.829Z,94842.16
2023-02-26T09:16:13.876Z,94848.38
2023-02-26T09:18:42.098Z,94848.95
2023-02-26T09:21:10.094Z,94847.86
2023-02-26T09:23:38.758Z,94848.88
2023-02-26T09:26:09.578Z,94847.60
2023-02-26T09:28:37.599Z,94848.45
2023-02-26T09:31:07.632Z,94851.63
2023-02-26T09:33:36.702Z,94854.09
2023-02-26T09:36:05.197Z,94858.23
2023-02-26T09:38:33.578Z,94866.65
2023-02-26T09:41:07.223Z,94868.21
2023-02-26T09:43:44.258Z,94868.69
2023-02-26T09:46:34.166Z,94870.64
2023-02-26T09:49:41.489Z,94869.09
2023-02-26T09:52:32.727Z,94868.33
2023-02-26T09:55:09.785Z,94867.20
2023-02-26T09:57:42.745Z,94867.94
2023-02-26T10:00:18.014Z,94869.29
2023-02-26T10:02:52.192Z,94866.16
2023-02-26T10:06:11.246Z,94866.52
2023-02-26T10:08:56.646Z,94865.81
2023-02-26T10:12:01.944Z,94871.88
2023-02-26T10:14:49.005Z,94869.80
2023-02-26T10:17:32.422Z,94868.29
2023-02-26T10:20:06.726Z,94882.77
2023-02-26T10:22:40.226Z,94891.51
2023-02-26T10:25:14.801Z,94891.81
2023-02-26T10:27:43.437Z,94888.80
2023-02-26T10:30:25.369Z,94887.21
2023-02-26T10:33:14.223Z,94889.80
2023-02-26T10:35:53.766Z,94894.63
2023-02-26T10:38:28.618Z,94894.55
2023-02-26T10:41:05.260Z,94898.25
2023-02-26T10:43:41.599Z,94898.04
2023-02-26T10:46:19.575Z,94896.02
2023-02-26T10:49:14.705Z,94899.77
2023-02-26T10:51:43.142Z,94901.98
2023-02-26T10:54:28.008Z,94903.26
2023-02-26T10:56:56.065Z,94900.30
2023-02-26T10:59:24.317Z,94903.02
2023-02-26T11:01:53.429Z,94905.41
2023-02-26T11:04:23.958Z,94904.59
2023-02-26T11:07:05.296Z,94903.45
2023-02-26T11:09:37.919Z,94911.94
2023-02-26T11:12:13.932Z,94911.07
2023-02-26T11:14:47.864Z,94909.95
2023-02-26T11:17:32.352Z,94912.25
2023-02-26T11:20:15.185Z,94913.23
2023-02-26T11:22:52.435Z,94912.73
2023-02-26T11:25:25.498Z,94915.27
2023-02-26T11:28:04.387Z,94917.16
2023-02-26T11:30:38.961Z,94916.52
2023-02-26T11:33:17.445Z,94921.48
2023-02-26T11:35:47.231Z,94923.65
2023-02-26T11:38:20.495Z,94928.11
2023-02-26T11:40:54.083Z,94930.77
2023-02-26T11:43:25.219Z,94936.30
2023-02-26T11:46:00.932Z,94936.16
2023-02-26T11:48:37.070Z,94934.10
2023-02-26T11:51:07.310Z,94937.02
2023-02-26T11:53:41.766Z,94941.92
2023-02-26T11:56:14.143Z,94940.20
2023-02-26T11:58:46.467Z,94937.98
2023-02-26T12:01:17.279Z,94937.77
2023-02-26T12:03:49.172Z,94942.67
2023-02-26T12:06:20.297Z,94946.41
2023-02-26T12:08:48.786Z,94944.59
2023-02-26T12:11:36.835Z,94943.10
2023-02-26T12:14:26.865Z,94943.56
2023-02-26T12:17:12.836Z,94945.92
2023-02-26T12:19:46.229Z,94949.04
2023-02-26T12:22:17.230Z,94951.29
2023-02-26T12:25:21.920Z,94953.46
2023-02-26T12:28:18.639Z,94956.69
2023-02-26T12:31:17.461Z,94958.80
2023-02-26T12:33:55.287Z,94963.63
2023-02-26T12:36:49.000Z,94970.59
2023-02-26T12:39:41.480Z,94975.80
2023-02-26T12:42:34.745Z,94978.68
2023-02-26T12:45:16.707Z,94978.91
2023-02-26T12:48:00.011Z,94976.77
2023-02-26T12:51:07.337Z,94975.33
2023-02-26T12:53:53.623Z,94975.23
2023-02-26T12:56:42.572Z,94972.67
2023-02-26T12:59:26.114Z,94974.09
2023-02-26T13:02:01.601Z,94980.47
2023-02-26T13:05:04.204Z,94987.22
2023-02-26T13:07:50.515Z,94993.79
2023-02-26T13:10:29.870Z,94989.55
2023-02-26T13:12:57.786Z,94991.99
2023-02-26T13:15:58.488Z,94993.29
2023-02-26T13:18:38.479Z,94999.09
2023-02-26T13:21:11.655Z,95003.02
2023-02-26T13:23:50.146Z,95006.05
2023-02-26T13:26:19.694Z,95017.23
2023-02-26T13:28:54.818Z,95023.49
2023-02-26T13:31:27.542Z,95026.54
2023-02-26T13:34:01.500Z,95028.47
2023-02-26T13:36:29.776Z,95032.44
2023-02-26T13:39:26.782Z,95038.95
2023-02-26T13:42:15.060Z,95040.73
2023-02-26T13:44:58.425Z,95039.19
2023-02-26T13:47:55.257Z,95039.61
2023-02-26T13:50:53.655Z,95038.86
2023-02-26T13:53:25.020Z,95045.16
2023-02-26T13:55:54.438Z,95050.11
2023-02-26T13:58:22.615Z,95057.81
2023-02-26T14:01:09.117Z,95062.54
2023-02-26T14:04:16.148Z,95064.50
2023-02-26T14:06:49.439Z,95069.30
2023-02-26T14:09:26.629Z,95071.77
2023-02-26T14:12:43.953Z,95072.83
2023-02-26T14:15:11.950Z,95072.08
2023-02-26T14:17:49.089Z,95072.31
2023-02-26T14:20:31.028Z,95076.66
2023-02-26T14:23:09.751Z,95083.58
2023-02-26T14:25:48.718Z,95087.40
2023-02-26T14:28:28.623Z,95087.35
2023-02-26T14:31:06.008Z,95094.95
2023-02-26T14:34:00.450Z,95098.73
2023-02-26T14:36:51.898Z,95099.52
2023-02-26T14:39:37.376Z,95102.03
2023-02-26T14:42:34.026Z,95105.74
2023-02-26T14:45:30.417Z,95111.90
2023-02-26T14:48:02.064Z,95114.08
2023-02-26T14:50:40.873Z,95117.68
2023-02-26T14:54:01.803Z,95121.70
2023-02-26T14:56:53.638Z,95124.36
2023-02-26T15:00:12.315Z,95125.35
2023-02-26T15:03:02.090Z,95133.84
2023-02-26T15:05:42.253Z,95132.39
2023-02-26T15:08:10.497Z,95132.77
2023-02-26T15:11:20.282Z,95136.27
2023-02-26T15:14:28.921Z,95141.91
2023-02-26T15:17:19.945Z,95142.08
2023-02-26T15:20:06.867Z,95145.55
2023-02-26T15:22:54.016Z,95147.60
2023-02-26T15:25:30.530Z,95147.51
2023-02-26T15:27:58.866Z,95149.04
2023-02-26T15:30:29.325Z,95154.75
2023-02-26T15:33:04.859Z,95158.43
2023-02-26T15:35:34.976Z,95163.24
2023-02-26T15:38:04.614Z,95165.23
2023-02-26T15:40:42.065Z,95170.86
2023-02-26T15:43:16.561Z,95178.14
2023-02-26T15:45:48.070Z,95185.09
2023-02-26T15:48:20.323Z,95191.89
2023-02-26T15:50:53.823Z,95190.76
2023-02-26T15:53:46.534Z,95188.18
2023-02-26T15:56:27.144Z,95193.62
2023-02-26T15:59:58.662Z,95195.25
2023-02-26T16:02:49.731Z,95197.90
2023-02-26T16:05:18.814Z,95203.84
2023-02-26T16:07:47.169Z,95212.04
2023-02-26T16:10:40.438Z,95214.98
2023-02-26T16:13:15.755Z,95221.50
2023-02-26T16:15:44.774Z,95221.83
2023-02-26T16:18:22.290Z,95229.08
2023-02-26T16:20:55.927Z,95233.14
2023-02-26T16:23:32.252Z,95237.21
2023-02-26T16:26:05.102Z,95235.98
2023-02-26T16:28:45.938Z,95237.84
2023-02-26T16:31:22.034Z,95242.01
2023-02-26T16:33:55.092Z,95242.63
2023-02-26T16:36:28.006Z,95246.79
2023-02-26T16:39:16.056Z,95248.38
2023-02-26T16:41:49.024Z,95247.39
2023-02-26T16:44:46.095Z,95251.33
2023-02-26T16:47:15.422Z,95255.63
2023-02-26T16:49:49.415Z,95261.55
2023-02-26T16:52:23.570Z,95264.80
2023-02-26T16:55:18.477Z,95265.50
2023-02-26T16:57:48.448Z,95266.73
2023-02-26T17:00:31.030Z,95258.70
2023-02-26T17:03:18.515Z,95255.05
2023-02-26T17:05:58.105Z,95248.67
2023-02-26T17:08:49.569Z,95251.73
2023-02-26T17:11:25.515Z,95254.81
2023-02-26T17:14:29.199Z,95253.44
2023-02-26T17:16:57.276Z,95256.99
2023-02-26T17:19:25.627Z,95263.11
2023-02-26T17:21:58.908Z,95262.95
2023-02-26T17:24:32.121Z,95265.20
2023-02-26T17:27:02.326Z,95270.44
2023-02-26T17:29:37.419Z,95265.61
2023-02-26T17:32:07.752Z,95272.33
2023-02-26T17:34:36.200Z,95280.25
2023-02-26T17:37:07.792Z,95281.71
2023-02-26T17:39:35.808Z,95277.73
2023-02-26T17:42:04.168Z,95277.48
2023-02-26T17:44:32.421Z,95280.43
2023-02-26T17:47:01.744Z,95285.62
2023-02-26T17:49:37.699Z,95285.59
2023-02-26T17:52:05.809Z,95290.75
2023-02-26T17:54:55.490Z,95297.09
2023-02-26T17:58:24.581Z,95302.92
2023-02-26T18:01:17.491Z,95308.63
2023-02-26T18:03:54.804Z,95312.16
2023-02-26T18:07:19.980Z,95310.12
2023-02-26T18:10:18.479Z,95308.37
2023-02-26T18:12:47.268Z,95302.55
2023-02-26T18:15:27.156Z,95298.94
2023-02-26T18:17:55.866Z,95300.47
2023-02-26T18:20:24.019Z,95298.73
2023-02-26T18:22:53.118Z,95296.15
2023-02-26T18:25:22.314Z,95291.82
2023-02-26T18:28:00.207Z,95289.14
2023-02-26T18:30:40.688Z,95285.33
2023-02-26T18:33:09.154Z,95282.58
2023-02-26T18:35:47.072Z,95287.25
2023-02-26T18:38:17.498Z,95294.22
2023-02-26T18:40:46.832Z,95294.15
2023-02-26T18:43:15.264Z,95290.71
2023-02-26T18:45:46.688Z,95283.36
2023-02-26T18:48:19.168Z,95281.52
2023-02-26T18:50:49.163Z,95281.42
2023-02-26T18:53:23.103Z,95283.98
2023-02-26T18:55:53.656Z,95286.02
2023-02-26T18:58:22.028Z,95288.38
2023-02-26T19:00:51.059Z,95285.63
2023-02-26T19:03:19.734Z,95286.17
2023-02-26T19:05:56.755Z,95287.05
2023-02-26T19:08:24.843Z,95289.17
2023-02-26T19:10:52.826Z,95293.27
2023-02-26T19:13:21.390Z,95299.05
2023-02-26T19:15:51.059Z,95303.61
2023-02-26T19:18:20.644Z,95306.08
2023-02-26T19:20:48.806Z,95310.36
2023-02-26T19:23:16.826Z,95307.63
2023-02-26T19:25:45.669Z,95308.28
2023-02-26T19:28:14.133Z,95312.70
2023-02-26T19:30:42.181Z,95313.22
2023-02-26T19:33:10.243Z,95311.05
2023-02-26T19:35:38.443Z,95310.95
2023-02-26T19:38:06.852Z,95306.22
2023-02-26T19:40:34.868Z,95311.52
2023-02-26T19:43:02.840Z,95308.80
2023-02-26T19:45:31.879Z,95304.99
2023-02-26T19:47:59.952Z,95307.02
2023-02-26T19:50:28.021Z,95310.36
2023-02-26T19:52:58.415Z,95313.52
2023-02-26T19:55:26.397Z,95317.36
2023-02-26T19:57:54.401Z,95317.94
2023-02-26T20:00:22.803Z,95319.93
2023-02-26T20:02:51.094Z,95321.57
2023-02-26T20:05:20.341Z,95320.84
2023-02-26T20:07:51.399Z,95322.16
2023-02-26T20:10:23.156Z,95318.52
2023-02-26T20:12:51.172Z,95319.19
2023-02-26T20:15:19.932Z,95322.83
2023-02-26T20:17:48.563Z,95327.34
2023-02-26T20:20:16.896Z,95327.63
2023-02-26T20:22:44.979Z,95327.23
2023-02-26T20:25:14.942Z,95325.13
2023-02-26T20:27:43.292Z,95329.30
2023-02-26T20:30:12.266Z,95337.02
2023-02-26T20:32:41.015Z,95335.41
2023-02-26T20:35:09.975Z,95334.34
2023-02-26T20:37:38.070Z,95339.21
2023-02-26T20:40:07.686Z,95344.45
2023-02-26T20:42:36.959Z,95344.50
2023-02-26T20:45:08.648Z,95342.37
2023-02-26T20:47:36.761Z,95336.15
2023-02-26T20:50:05.202Z,95334.02
2023-02-26T20:52:33.468Z,95338.02
2023-02-26T20:55:01.622Z,95341.27
2023-02-26T20:57:32.476Z,95342.34
2023-02-26T21:00:00.642Z,95337.61
2023-02-26T21:02:28.902Z,95331.70
2023-02-26T21:04:56.985Z,95326.81
2023-02-26T21:07:25.379Z,95319.70
2023-02-26T21:09:55.472Z,95317.52
2023-02-26T21:12:23.788Z,95320.43
2023-02-26T21:14:52.859Z,95326.73
2023-02-26T21:17:21.789Z,95325.65
2023-02-26T21:19:50.437Z,95330.10
2023-02-26T21:22:19.337Z,95333.90
2023-02-26T21:24:48.068Z,95338.58
2023-02-26T21:27:16.936Z,95343.05
2023-02-26T21:29:45.213Z,95340.05
2023-02-26T21:32:13.497Z,95336.00
2023-02-26T21:34:41.693Z,95323.65
2023-02-26T21:37:11.691Z,95313.90
2023-02-26T21:39:40.244Z,95312.92
2023-02-26T21:42:11.849Z,95310.72
2023-02-26T21:44:40.208Z,95314.95
2023-02-26T21:47:08.372Z,95323.35
2023-02-26T21:49:37.182Z,95326.37
2023-02-26T21:52:07.482Z,95331.03
2023-02-26T21:54:36.235Z,95331.51
2023-02-26T21:57:04.214Z,95331.73
2023-02-26T21:59:32.265Z,95335.05
2023-02-26T22:02:00.366Z,95331.11
2023-02-26T22:04:28.811Z,95333.48
2023-02-26T22:06:57.775Z,95332.72
2023-02-26T22:09:25.927Z,95340.16
2023-02-26T22:11:53.939Z,95341.14
2023-02-26T22:14:22.333Z,95342.63
2023-02-26T22:16:50.424Z,95342.55
2023-02-26T22:19:18.629Z,95346.63
2023-02-26T22:21:46.652Z,95343.69
2023-02-26T22:24:15.034Z,95345.95
2023-02-26T22:26:44.681Z,95345.19
2023-02-26T22:29:12.808Z,95344.40
2023-02-26T22:31:40.960Z,95347.46
2023-02-26T22:34:09.477Z,95346.74
2023-02-26T22:36:37.557Z,95350.47
2023-02-26T22:39:06.423Z,95348.09
2023-02-26T22:41:36.038Z,95345.59
2023-02-26T22:44:05.277Z,95342.19
2023-02-26T22:46:34.438Z,95345.20
2023-02-26T22:49:03.325Z,95353.17
2023-02-26T22:51:33.270Z,95363.55
2023-02-26T22:54:01.829Z,95363.84
2023-02-26T22:56:30.576Z,95361.12
2023-02-26T22:58:58.754Z,95359.79
2023-02-26T23:01:26.948Z,95365.14
2023-02-26T23:03:54.925Z,95373.45
2023-02-26T23:06:23.080Z,95364.25
2023-02-26T23:08:51.531Z,95364.75
2023-02-26T23:11:20.075Z,95362.38
2023-02-26T23:13:48.205Z,95363.91
2023-02-26T23:16:16.330Z,95362.17
2023-02-26T23:18:48.195Z,95362.09
2023-02-26T23:21:17.005Z,95364.89
2023-02-26T23:23:45.604Z,95365.01
2023-02-26T23:26:14.106Z,95359.63
2023-02-26T23:28:42.160Z,95357.85
2023-02-26T23:31:10.302Z,95357.41
2023-02-26T23:33:38.448Z,95352.04
2023-02-26T23:36:07.762Z,95348.21
2023-02-26T23:38:36.185Z,95345.19
2023-02-26T23:41:04.577Z,95347.81
2023-02-26T23:43:33.999Z,95348.61
2023-02-26T23:46:02.027Z,95349.17
2023-02-26T23:48:30.475Z,95352.33
2023-02-26T23:50:58.508Z,95352.13
2023-02-26T23:53:26.597Z,95356.63
2023-02-26T23:55:59.017Z,95362.83
2023-02-26T23:58:28.631Z,95359.70
